sensor_id;sensor_type;location;lat;lon;timestamp;pressure;altitude;pressure_sealevel;temperature;humidity
34243;BME280;20504;43.214;27.920;2023-04-01T00:00:56;100660.38;;;13.56;100.00
34243;BME280;20504;43.214;27.920;2023-04-01T00:03:23;100647.91;;;13.57;100.00
34243;BME280;20504;43.214;27.920;2023-04-01T00:05:49;100643.34;;;13.35;100.00
34243;BME280;20504;43.214;27.920;2023-04-01T00:08:15;100655.16;;;13.55;100.00
34243;BME280;20504;43.214;27.920;2023-04-01T00:10:41;100651.16;;;13.49;100.00
34243;BME280;20504;43.214;27.920;2023-04-01T00:13:09;100644.38;;;13.45;100.00
34243;BME280;20504;43.214;27.920;2023-04-01T00:15:35;100665.59;;;13.34;100.00
34243;BME280;20504;43.214;27.920;2023-04-01T00:18:01;100664.03;;;13.31;100.00
34243;BME280;20504;43.214;27.920;2023-04-01T00:20:27;100655.16;;;13.07;100.00
34243;BME280;20504;43.214;27.920;2023-04-01T00:22:52;100654.91;;;13.10;100.00
34243;BME280;20504;43.214;27.920;2023-04-01T00:25:18;100656.00;;;13.20;100.00
34243;BME280;20504;43.214;27.920;2023-04-01T00:27:44;100655.31;;;13.17;100.00
34243;BME280;20504;43.214;27.920;2023-04-01T00:30:10;100637.69;;;13.03;100.00
34243;BME280;20504;43.214;27.920;2023-04-01T00:32:38;100645.78;;;13.01;100.00
34243;BME280;20504;43.214;27.920;2023-04-01T00:35:04;100630.47;;;12.92;100.00
34243;BME280;20504;43.214;27.920;2023-04-01T00:37:30;100610.50;;;12.87;100.00
34243;BME280;20504;43.214;27.920;2023-04-01T00:39:56;100557.16;;;12.52;100.00
34243;BME280;20504;43.214;27.920;2023-04-01T00:42:22;100599.75;;;12.76;100.00
34243;BME280;20504;43.214;27.920;2023-04-01T00:44:51;100609.25;;;12.67;100.00
34243;BME280;20504;43.214;27.920;2023-04-01T00:47:18;100636.13;;;12.88;100.00
34243;BME280;20504;43.214;27.920;2023-04-01T00:49:47;100619.34;;;12.74;100.00
34243;BME280;20504;43.214;27.920;2023-04-01T00:52:17;100614.34;;;12.70;100.00
34243;BME280;20504;43.214;27.920;2023-04-01T00:54:46;100616.41;;;12.66;100.00
34243;BME280;20504;43.214;27.920;2023-04-01T00:57:21;100591.41;;;12.43;100.00
34243;BME280;20504;43.214;27.920;2023-04-01T00:59:50;100608.31;;;12.42;100.00
34243;BME280;20504;43.214;27.920;2023-04-01T01:02:18;100613.44;;;12.46;100.00
34243;BME280;20504;43.214;27.920;2023-04-01T01:04:45;100609.28;;;12.41;100.00
34243;BME280;20504;43.214;27.920;2023-04-01T01:10:26;100577.19;;;12.19;100.00
34243;BME280;20504;43.214;27.920;2023-04-01T01:15:37;100594.84;;;12.07;100.00
34243;BME280;20504;43.214;27.920;2023-04-01T01:18:16;100599.84;;;11.99;100.00
34243;BME280;20504;43.214;27.920;2023-04-01T01:31:46;100515.81;;;11.46;100.00
34243;BME280;20504;43.214;27.920;2023-04-01T01:34:24;100514.03;;;11.59;100.00
34243;BME280;20504;43.214;27.920;2023-04-01T01:36:59;100493.31;;;11.64;100.00
34243;BME280;20504;43.214;27.920;2023-04-01T01:39:28;100474.72;;;11.64;100.00
34243;BME280;20504;43.214;27.920;2023-04-01T01:41:57;100461.75;;;11.60;100.00
34243;BME280;20504;43.214;27.920;2023-04-01T01:44:25;100460.25;;;11.68;100.00
34243;BME280;20504;43.214;27.920;2023-04-01T01:46:53;100442.22;;;11.61;100.00
34243;BME280;20504;43.214;27.920;2023-04-01T01:49:18;100436.22;;;11.70;100.00
34243;BME280;20504;43.214;27.920;2023-04-01T01:51:45;100437.44;;;11.78;100.00
34243;BME280;20504;43.214;27.920;2023-04-01T01:54:14;100427.44;;;11.82;100.00
34243;BME280;20504;43.214;27.920;2023-04-01T01:56:44;100401.63;;;11.71;100.00
34243;BME280;20504;43.214;27.920;2023-04-01T01:59:11;100426.25;;;11.86;100.00
34243;BME280;20504;43.214;27.920;2023-04-01T02:01:41;100425.41;;;11.86;100.00
34243;BME280;20504;43.214;27.920;2023-04-01T02:04:08;100395.97;;;11.76;100.00
34243;BME280;20504;43.214;27.920;2023-04-01T02:06:38;100413.69;;;11.88;100.00
34243;BME280;20504;43.214;27.920;2023-04-01T02:09:08;100385.22;;;11.77;100.00
34243;BME280;20504;43.214;27.920;2023-04-01T02:11:42;100379.03;;;11.90;100.00
34243;BME280;20504;43.214;27.920;2023-04-01T02:14:17;100371.75;;;11.80;100.00
34243;BME280;20504;43.214;27.920;2023-04-01T02:16:53;100373.00;;;11.88;100.00
34243;BME280;20504;43.214;27.920;2023-04-01T02:19:22;100365.44;;;11.94;100.00
34243;BME280;20504;43.214;27.920;2023-04-01T02:21:53;100352.28;;;11.93;100.00
34243;BME280;20504;43.214;27.920;2023-04-01T02:24:21;100344.88;;;11.72;100.00
34243;BME280;20504;43.214;27.920;2023-04-01T02:26:50;100365.28;;;11.72;100.00
34243;BME280;20504;43.214;27.920;2023-04-01T02:29:18;100353.47;;;11.63;100.00
34243;BME280;20504;43.214;27.920;2023-04-01T02:31:45;100357.19;;;11.61;100.00
34243;BME280;20504;43.214;27.920;2023-04-01T02:34:10;100366.75;;;11.63;100.00
34243;BME280;20504;43.214;27.920;2023-04-01T02:36:36;100355.81;;;11.80;100.00
34243;BME280;20504;43.214;27.920;2023-04-01T02:39:03;100343.75;;;11.88;100.00
34243;BME280;20504;43.214;27.920;2023-04-01T02:41:29;100336.31;;;11.93;100.00
34243;BME280;20504;43.214;27.920;2023-04-01T02:43:55;100345.47;;;11.89;100.00
34243;BME280;20504;43.214;27.920;2023-04-01T02:46:24;100339.09;;;11.91;100.00
34243;BME280;20504;43.214;27.920;2023-04-01T02:48:49;100343.75;;;11.88;100.00
34243;BME280;20504;43.214;27.920;2023-04-01T02:51:15;100327.94;;;11.86;100.00
34243;BME280;20504;43.214;27.920;2023-04-01T02:53:41;100329.19;;;11.93;100.00
34243;BME280;20504;43.214;27.920;2023-04-01T02:56:06;100316.66;;;11.95;100.00
34243;BME280;20504;43.214;27.920;2023-04-01T02:58:32;100314.59;;;11.99;100.00
34243;BME280;20504;43.214;27.920;2023-04-01T03:00:57;100322.56;;;11.99;100.00
34243;BME280;20504;43.214;27.920;2023-04-01T03:03:24;100314.16;;;12.05;100.00
34243;BME280;20504;43.214;27.920;2023-04-01T03:05:50;100305.09;;;12.07;100.00
34243;BME280;20504;43.214;27.920;2023-04-01T03:08:15;100316.88;;;12.16;100.00
34243;BME280;20504;43.214;27.920;2023-04-01T03:10:41;100319.78;;;12.24;100.00
34243;BME280;20504;43.214;27.920;2023-04-01T03:13:06;100331.06;;;12.28;100.00
34243;BME280;20504;43.214;27.920;2023-04-01T03:15:32;100341.06;;;12.24;100.00
34243;BME280;20504;43.214;27.920;2023-04-01T03:17:57;100338.47;;;12.11;100.00
34243;BME280;20504;43.214;27.920;2023-04-01T03:20:23;100352.41;;;12.15;100.00
34243;BME280;20504;43.214;27.920;2023-04-01T03:22:48;100345.66;;;12.22;100.00
34243;BME280;20504;43.214;27.920;2023-04-01T03:25:13;100346.84;;;12.18;100.00
34243;BME280;20504;43.214;27.920;2023-04-01T03:27:39;100337.16;;;12.17;100.00
34243;BME280;20504;43.214;27.920;2023-04-01T03:30:06;100334.50;;;12.17;100.00
34243;BME280;20504;43.214;27.920;2023-04-01T03:32:32;100331.59;;;12.09;100.00
34243;BME280;20504;43.214;27.920;2023-04-01T03:34:57;100331.97;;;12.16;100.00
34243;BME280;20504;43.214;27.920;2023-04-01T03:37:23;100343.22;;;12.19;100.00
34243;BME280;20504;43.214;27.920;2023-04-01T03:39:50;100337.16;;;12.17;100.00
34243;BME280;20504;43.214;27.920;2023-04-01T03:42:16;100334.91;;;12.24;100.00
34243;BME280;20504;43.214;27.920;2023-04-01T03:44:41;100346.50;;;12.23;100.00
34243;BME280;20504;43.214;27.920;2023-04-01T03:47:07;100329.88;;;12.08;100.00
34243;BME280;20504;43.214;27.920;2023-04-01T03:49:34;100347.88;;;12.28;100.00
34243;BME280;20504;43.214;27.920;2023-04-01T03:51:59;100361.91;;;12.30;100.00
34243;BME280;20504;43.214;27.920;2023-04-01T03:54:25;100362.13;;;12.27;100.00
34243;BME280;20504;43.214;27.920;2023-04-01T03:56:50;100360.09;;;12.31;100.00
34243;BME280;20504;43.214;27.920;2023-04-01T03:59:16;100362.22;;;12.26;100.00
34243;BME280;20504;43.214;27.920;2023-04-01T04:01:41;100377.63;;;12.33;100.00
34243;BME280;20504;43.214;27.920;2023-04-01T04:04:07;100387.41;;;12.33;100.00
34243;BME280;20504;43.214;27.920;2023-04-01T04:06:33;100385.59;;;12.33;100.00
34243;BME280;20504;43.214;27.920;2023-04-01T04:08:59;100377.63;;;12.33;100.00
34243;BME280;20504;43.214;27.920;2023-04-01T04:11:24;100379.19;;;12.36;100.00
34243;BME280;20504;43.214;27.920;2023-04-01T04:13:51;100364.31;;;12.33;100.00
34243;BME280;20504;43.214;27.920;2023-04-01T04:16:17;100332.47;;;12.21;100.00
34243;BME280;20504;43.214;27.920;2023-04-01T04:18:43;100358.00;;;12.47;100.00
34243;BME280;20504;43.214;27.920;2023-04-01T04:21:12;100361.25;;;12.51;100.00
34243;BME280;20504;43.214;27.920;2023-04-01T04:23:39;100351.50;;;12.62;100.00
34243;BME280;20504;43.214;27.920;2023-04-01T04:26:07;100356.97;;;12.72;100.00
34243;BME280;20504;43.214;27.920;2023-04-01T04:28:33;100358.19;;;12.79;100.00
34243;BME280;20504;43.214;27.920;2023-04-01T04:30:58;100360.13;;;12.77;100.00
34243;BME280;20504;43.214;27.920;2023-04-01T04:33:25;100357.03;;;12.83;100.00
34243;BME280;20504;43.214;27.920;2023-04-01T04:35:51;100356.19;;;12.94;100.00
34243;BME280;20504;43.214;27.920;2023-04-01T04:38:18;100360.09;;;13.12;100.00
34243;BME280;20504;43.214;27.920;2023-04-01T04:40:44;100359.19;;;13.24;100.00
34243;BME280;20504;43.214;27.920;2023-04-01T04:43:14;100356.38;;;13.37;100.00
34243;BME280;20504;43.214;27.920;2023-04-01T04:45:40;100365.84;;;13.52;100.00
34243;BME280;20504;43.214;27.920;2023-04-01T04:48:08;100374.56;;;13.66;100.00
34243;BME280;20504;43.214;27.920;2023-04-01T04:50:34;100360.97;;;13.80;100.00
34243;BME280;20504;43.214;27.920;2023-04-01T04:52:59;100375.00;;;13.93;100.00
34243;BME280;20504;43.214;27.920;2023-04-01T04:55:25;100380.53;;;14.12;100.00
34243;BME280;20504;43.214;27.920;2023-04-01T04:57:50;100388.13;;;14.28;100.00
34243;BME280;20504;43.214;27.920;2023-04-01T05:00:16;100404.34;;;14.47;100.00
34243;BME280;20504;43.214;27.920;2023-04-01T05:02:42;100418.25;;;14.62;100.00
34243;BME280;20504;43.214;27.920;2023-04-01T05:05:07;100431.31;;;14.76;100.00
34243;BME280;20504;43.214;27.920;2023-04-01T05:07:33;100434.16;;;14.84;100.00
34243;BME280;20504;43.214;27.920;2023-04-01T05:09:59;100443.84;;;14.97;100.00
34243;BME280;20504;43.214;27.920;2023-04-01T05:12:25;100449.19;;;14.97;100.00
34243;BME280;20504;43.214;27.920;2023-04-01T05:14:50;100453.72;;;15.06;100.00
34243;BME280;20504;43.214;27.920;2023-04-01T05:17:16;100443.56;;;15.00;100.00
34243;BME280;20504;43.214;27.920;2023-04-01T05:19:41;100471.00;;;15.23;100.00
34243;BME280;20504;43.214;27.920;2023-04-01T05:22:07;100488.09;;;15.31;100.00
34243;BME280;20504;43.214;27.920;2023-04-01T05:24:33;100488.56;;;15.36;100.00
34243;BME280;20504;43.214;27.920;2023-04-01T05:26:59;100487.06;;;15.43;100.00
34243;BME280;20504;43.214;27.920;2023-04-01T05:29:25;100482.16;;;15.49;100.00
34243;BME280;20504;43.214;27.920;2023-04-01T05:31:51;100484.28;;;15.66;100.00
34243;BME280;20504;43.214;27.920;2023-04-01T05:34:17;100479.22;;;15.72;100.00
34243;BME280;20504;43.214;27.920;2023-04-01T05:36:43;100489.16;;;15.82;100.00
34243;BME280;20504;43.214;27.920;2023-04-01T05:39:09;100493.13;;;15.87;100.00
34243;BME280;20504;43.214;27.920;2023-04-01T05:41:35;100484.72;;;16.01;100.00
34243;BME280;20504;43.214;27.920;2023-04-01T05:44:01;100503.63;;;16.10;100.00
34243;BME280;20504;43.214;27.920;2023-04-01T05:46:27;100491.13;;;16.20;100.00
34243;BME280;20504;43.214;27.920;2023-04-01T05:48:53;100502.47;;;16.43;100.00
34243;BME280;20504;43.214;27.920;2023-04-01T05:51:18;100501.09;;;16.58;100.00
34243;BME280;20504;43.214;27.920;2023-04-01T05:53:43;100506.66;;;16.76;100.00
34243;BME280;20504;43.214;27.920;2023-04-01T05:56:09;100496.94;;;17.04;100.00
34243;BME280;20504;43.214;27.920;2023-04-01T05:58:38;100501.31;;;17.34;100.00
34243;BME280;20504;43.214;27.920;2023-04-01T06:01:05;100496.72;;;17.63;100.00
34243;BME280;20504;43.214;27.920;2023-04-01T06:03:32;100483.97;;;17.94;100.00
34243;BME280;20504;43.214;27.920;2023-04-01T06:05:57;100481.28;;;18.22;100.00
34243;BME280;20504;43.214;27.920;2023-04-01T06:08:24;100472.75;;;18.36;100.00
34243;BME280;20504;43.214;27.920;2023-04-01T06:11:11;100467.78;;;18.59;100.00
34243;BME280;20504;43.214;27.920;2023-04-01T06:13:51;100456.97;;;18.78;100.00
34243;BME280;20504;43.214;27.920;2023-04-01T06:19:36;100430.25;;;18.31;100.00
34243;BME280;20504;43.214;27.920;2023-04-01T06:42:10;100294.06;;;18.59;100.00
34243;BME280;20504;43.214;27.920;2023-04-01T06:47:40;100275.63;;;18.21;100.00
34243;BME280;20504;43.214;27.920;2023-04-01T06:53:38;100251.56;;;18.11;100.00
34243;BME280;20504;43.214;27.920;2023-04-01T06:56:14;100250.72;;;18.10;100.00
34243;BME280;20504;43.214;27.920;2023-04-01T06:58:49;100250.41;;;18.13;100.00
34243;BME280;20504;43.214;27.920;2023-04-01T07:01:23;100246.34;;;18.09;100.00
34243;BME280;20504;43.214;27.920;2023-04-01T07:04:13;100254.03;;;18.04;100.00
34243;BME280;20504;43.214;27.920;2023-04-01T07:06:50;100252.03;;;18.06;100.00
34243;BME280;20504;43.214;27.920;2023-04-01T07:09:41;100243.34;;;18.30;100.00
34243;BME280;20504;43.214;27.920;2023-04-01T07:12:26;100238.41;;;18.43;100.00
34243;BME280;20504;43.214;27.920;2023-04-01T07:14:58;100234.47;;;18.56;100.00
34243;BME280;20504;43.214;27.920;2023-04-01T07:17:35;100228.34;;;18.89;100.00
34243;BME280;20504;43.214;27.920;2023-04-01T07:20:05;100218.72;;;18.61;100.00
34243;BME280;20504;43.214;27.920;2023-04-01T07:22:42;100220.81;;;18.67;100.00
34243;BME280;20504;43.214;27.920;2023-04-01T07:25:23;100205.16;;;18.62;100.00
34243;BME280;20504;43.214;27.920;2023-04-01T07:27:52;100224.84;;;18.45;100.00
34243;BME280;20504;43.214;27.920;2023-04-01T07:30:21;100220.84;;;18.31;100.00
34243;BME280;20504;43.214;27.920;2023-04-01T07:33:15;100220.50;;;18.26;100.00
34243;BME280;20504;43.214;27.920;2023-04-01T07:36:06;100201.44;;;18.37;100.00
34243;BME280;20504;43.214;27.920;2023-04-01T07:52:56;100173.22;;;18.59;100.00
34243;BME280;20504;43.214;27.920;2023-04-01T07:55:23;100173.91;;;18.61;100.00
34243;BME280;20504;43.214;27.920;2023-04-01T08:00:51;100155.09;;;18.87;100.00
34243;BME280;20504;43.214;27.920;2023-04-01T08:10:57;100127.13;;;19.64;100.00
34243;BME280;20504;43.214;27.920;2023-04-01T08:22:11;100085.25;;;19.54;100.00
34243;BME280;20504;43.214;27.920;2023-04-01T08:24:44;100080.38;;;19.65;100.00
34243;BME280;20504;43.214;27.920;2023-04-01T08:27:40;100059.00;;;19.96;100.00
34243;BME280;20504;43.214;27.920;2023-04-01T08:30:21;100043.69;;;20.13;100.00
34243;BME280;20504;43.214;27.920;2023-04-01T08:35:43;100038.84;;;19.92;100.00
34243;BME280;20504;43.214;27.920;2023-04-01T08:41:49;100029.25;;;19.90;100.00
34243;BME280;20504;43.214;27.920;2023-04-01T08:46:56;99998.22;;;20.18;100.00
34243;BME280;20504;43.214;27.920;2023-04-01T08:49:49;99982.72;;;20.20;100.00
34243;BME280;20504;43.214;27.920;2023-04-01T08:52:35;99977.34;;;20.20;100.00
34243;BME280;20504;43.214;27.920;2023-04-01T09:00:15;99964.59;;;20.14;100.00
34243;BME280;20504;43.214;27.920;2023-04-01T09:12:13;99905.47;;;20.60;100.00
34243;BME280;20504;43.214;27.920;2023-04-01T09:14:53;99898.00;;;20.70;100.00
34243;BME280;20504;43.214;27.920;2023-04-01T09:25:48;99878.84;;;20.65;100.00
34243;BME280;20504;43.214;27.920;2023-04-01T09:28:20;99877.53;;;20.84;100.00
34243;BME280;20504;43.214;27.920;2023-04-01T09:36:45;99853.47;;;20.82;100.00
34243;BME280;20504;43.214;27.920;2023-04-01T09:42:15;99825.44;;;21.06;100.00
34243;BME280;20504;43.214;27.920;2023-04-01T09:58:14;99765.81;;;20.72;100.00
34243;BME280;20504;43.214;27.920;2023-04-01T10:28:02;99740.81;;;20.17;100.00
34243;BME280;20504;43.214;27.920;2023-04-01T10:30:59;99748.88;;;20.17;100.00
34243;BME280;20504;43.214;27.920;2023-04-01T10:55:32;99708.75;;;20.68;100.00
34243;BME280;20504;43.214;27.920;2023-04-01T11:31:31;99669.66;;;20.87;100.00
34243;BME280;20504;43.214;27.920;2023-04-01T11:40:06;99645.13;;;20.67;100.00
34243;BME280;20504;43.214;27.920;2023-04-01T11:45:11;99656.44;;;20.77;100.00
34243;BME280;20504;43.214;27.920;2023-04-01T12:01:27;99571.44;;;23.08;100.00
34243;BME280;20504;43.214;27.920;2023-04-01T12:09:53;99553.19;;;23.30;100.00
34243;BME280;20504;43.214;27.920;2023-04-01T12:15:16;99518.06;;;22.82;100.00
34243;BME280;20504;43.214;27.920;2023-04-01T12:20:50;99475.97;;;22.66;100.00
34243;BME280;20504;43.214;27.920;2023-04-01T12:26:20;99440.53;;;22.35;100.00
34243;BME280;20504;43.214;27.920;2023-04-01T12:45:33;99371.44;;;20.94;100.00
34243;BME280;20504;43.214;27.920;2023-04-01T12:59:48;99424.69;;;19.53;100.00
34243;BME280;20504;43.214;27.920;2023-04-01T13:05:52;99454.28;;;19.53;100.00
34243;BME280;20504;43.214;27.920;2023-04-01T13:16:27;99548.16;;;19.40;100.00
34243;BME280;20504;43.214;27.920;2023-04-01T13:29:27;99640.66;;;19.22;100.00
34243;BME280;20504;43.214;27.920;2023-04-01T13:41:22;99665.19;;;20.04;100.00
34243;BME280;20504;43.214;27.920;2023-04-01T13:49:20;99676.50;;;20.75;100.00
34243;BME280;20504;43.214;27.920;2023-04-01T14:11:16;99518.00;;;22.00;100.00
34243;BME280;20504;43.214;27.920;2023-04-01T14:19:24;99490.66;;;21.82;100.00
34243;BME280;20504;43.214;27.920;2023-04-01T14:30:35;99441.81;;;20.04;100.00
34243;BME280;20504;43.214;27.920;2023-04-01T14:33:17;99410.06;;;20.29;100.00
34243;BME280;20504;43.214;27.920;2023-04-01T14:50:18;99480.81;;;20.08;100.00
34243;BME280;20504;43.214;27.920;2023-04-01T14:53:13;99482.66;;;19.93;100.00
34243;BME280;20504;43.214;27.920;2023-04-01T14:58:21;99496.19;;;19.85;100.00
34243;BME280;20504;43.214;27.920;2023-04-01T15:08:53;99518.94;;;20.26;100.00
34243;BME280;20504;43.214;27.920;2023-04-01T15:11:35;99506.31;;;21.43;100.00
34243;BME280;20504;43.214;27.920;2023-04-01T15:30:37;98620.50;;;24.94;100.00
34243;BME280;20504;43.214;27.920;2023-04-01T15:35:50;98599.06;;;22.95;100.00
34243;BME280;20504;43.214;27.920;2023-04-01T15:38:33;98720.72;;;21.94;100.00
34243;BME280;20504;43.214;27.920;2023-04-01T15:41:18;98733.81;;;21.00;100.00
34243;BME280;20504;43.214;27.920;2023-04-01T15:43:48;98669.19;;;20.80;100.00
34243;BME280;20504;43.214;27.920;2023-04-01T15:46:43;98696.97;;;20.54;100.00
34243;BME280;20504;43.214;27.920;2023-04-01T15:54:57;99012.44;;;19.31;100.00
34243;BME280;20504;43.214;27.920;2023-04-01T15:57:42;99081.56;;;19.01;100.00
34243;BME280;20504;43.214;27.920;2023-04-01T16:00:26;99150.88;;;19.05;100.00
34243;BME280;20504;43.214;27.920;2023-04-01T16:17:21;99335.72;;;18.10;100.00
34243;BME280;20504;43.214;27.920;2023-04-01T16:25:44;99469.75;;;18.04;100.00
34243;BME280;20504;43.214;27.920;2023-04-01T16:28:18;99529.41;;;17.98;100.00
34243;BME280;20504;43.214;27.920;2023-04-01T16:34:08;99606.38;;;17.89;100.00
34243;BME280;20504;43.214;27.920;2023-04-01T16:42:51;99720.38;;;18.01;100.00
34243;BME280;20504;43.214;27.920;2023-04-01T16:45:41;99738.81;;;17.88;100.00
34243;BME280;20504;43.214;27.920;2023-04-01T16:48:15;99763.91;;;17.71;100.00
34243;BME280;20504;43.214;27.920;2023-04-01T16:55:54;99837.00;;;17.47;100.00
34243;BME280;20504;43.214;27.920;2023-04-01T16:58:37;99858.19;;;17.58;100.00
34243;BME280;20504;43.214;27.920;2023-04-01T17:01:17;99868.66;;;17.69;100.00
34243;BME280;20504;43.214;27.920;2023-04-01T17:03:46;99887.47;;;17.51;100.00
34243;BME280;20504;43.214;27.920;2023-04-01T17:14:06;99934.38;;;17.73;100.00
34243;BME280;20504;43.214;27.920;2023-04-01T17:17:01;99933.03;;;17.69;100.00
34243;BME280;20504;43.214;27.920;2023-04-01T17:19:54;99929.91;;;17.64;100.00
34243;BME280;20504;43.214;27.920;2023-04-01T17:22:33;99936.75;;;17.76;100.00
34243;BME280;20504;43.214;27.920;2023-04-01T17:25:20;99944.13;;;17.82;100.00
34243;BME280;20504;43.214;27.920;2023-04-01T17:28:01;99944.47;;;17.79;100.00
34243;BME280;20504;43.214;27.920;2023-04-01T17:30:39;99934.16;;;17.67;100.00
34243;BME280;20504;43.214;27.920;2023-04-01T17:33:22;99960.56;;;17.62;100.00
34243;BME280;20504;43.214;27.920;2023-04-01T17:35:51;99965.75;;;17.55;100.00
34243;BME280;20504;43.214;27.920;2023-04-01T17:49:35;99991.22;;;17.59;100.00
34243;BME280;20504;43.214;27.920;2023-04-01T18:02:50;100045.81;;;17.14;100.00
34243;BME280;20504;43.214;27.920;2023-04-01T18:13:34;100068.22;;;16.68;100.00
34243;BME280;20504;43.214;27.920;2023-04-01T18:21:43;100034.94;;;16.43;100.00
34243;BME280;20504;43.214;27.920;2023-04-01T18:24:13;100041.34;;;16.50;100.00
34243;BME280;20504;43.214;27.920;2023-04-01T18:26:44;100062.78;;;16.50;100.00
34243;BME280;20504;43.214;27.920;2023-04-01T18:29:34;100024.44;;;16.59;100.00
34243;BME280;20504;43.214;27.920;2023-04-01T18:32:36;100002.59;;;16.54;100.00
34243;BME280;20504;43.214;27.920;2023-04-01T18:41:10;99978.38;;;16.28;100.00
34243;BME280;20504;43.214;27.920;2023-04-01T18:44:10;99941.44;;;16.32;100.00
34243;BME280;20504;43.214;27.920;2023-04-01T18:47:15;99898.34;;;16.35;100.00
34243;BME280;20504;43.214;27.920;2023-04-01T18:52:40;99897.22;;;16.38;100.00
34243;BME280;20504;43.214;27.920;2023-04-01T18:58:25;99864.84;;;16.49;100.00
34243;BME280;20504;43.214;27.920;2023-04-01T19:01:19;99816.47;;;16.42;100.00
34243;BME280;20504;43.214;27.920;2023-04-01T19:04:15;99805.38;;;16.37;100.00
34243;BME280;20504;43.214;27.920;2023-04-01T19:06:48;99815.16;;;16.28;100.00
34243;BME280;20504;43.214;27.920;2023-04-01T19:09:22;99819.59;;;16.20;100.00
34243;BME280;20504;43.214;27.920;2023-04-01T19:12:38;99837.69;;;16.08;100.00
34243;BME280;20504;43.214;27.920;2023-04-01T19:17:58;99762.56;;;16.01;100.00
34243;BME280;20504;43.214;27.920;2023-04-01T19:20:45;99737.41;;;15.94;100.00
34243;BME280;20504;43.214;27.920;2023-04-01T19:31:54;99654.38;;;15.96;100.00
34243;BME280;20504;43.214;27.920;2023-04-01T19:37:24;99616.41;;;15.92;100.00
34243;BME280;20504;43.214;27.920;2023-04-01T19:40:08;99619.00;;;16.02;100.00
34243;BME280;20504;43.214;27.920;2023-04-01T19:45:41;99498.91;;;15.91;100.00
34243;BME280;20504;43.214;27.920;2023-04-01T19:50:49;99483.06;;;15.97;100.00
34243;BME280;20504;43.214;27.920;2023-04-01T19:55:54;99436.75;;;15.89;100.00
34243;BME280;20504;43.214;27.920;2023-04-01T19:58:39;99391.69;;;15.68;100.00
34243;BME280;20504;43.214;27.920;2023-04-01T20:01:25;99353.75;;;15.64;100.00
34243;BME280;20504;43.214;27.920;2023-04-01T20:04:14;99224.31;;;15.67;100.00
34243;BME280;20504;43.214;27.920;2023-04-01T20:15:02;99288.31;;;15.68;100.00
34243;BME280;20504;43.214;27.920;2023-04-01T20:17:42;99358.78;;;15.67;100.00
34243;BME280;20504;43.214;27.920;2023-04-01T20:25:16;99482.69;;;15.84;100.00
34243;BME280;20504;43.214;27.920;2023-04-01T20:27:54;99508.50;;;15.75;100.00
34243;BME280;20504;43.214;27.920;2023-04-01T20:33:31;99504.63;;;15.70;100.00
34243;BME280;20504;43.214;27.920;2023-04-01T20:52:49;99621.06;;;15.55;100.00
34243;BME280;20504;43.214;27.920;2023-04-01T20:58:17;99681.81;;;15.53;100.00
34243;BME280;20504;43.214;27.920;2023-04-01T21:14:32;99756.13;;;15.77;100.00
34243;BME280;20504;43.214;27.920;2023-04-01T21:42:03;99877.41;;;15.29;100.00
34243;BME280;20504;43.214;27.920;2023-04-01T21:44:51;99779.19;;;15.40;100.00
34243;BME280;20504;43.214;27.920;2023-04-01T21:47:55;99710.97;;;15.19;100.00
34243;BME280;20504;43.214;27.920;2023-04-01T21:53:25;99595.13;;;15.02;100.00
34243;BME280;20504;43.214;27.920;2023-04-01T21:56:49;99354.75;;;15.11;100.00
34243;BME280;20504;43.214;27.920;2023-04-01T21:59:48;99226.72;;;15.10;100.00
34243;BME280;20504;43.214;27.920;2023-04-01T22:10:59;99095.84;;;15.02;100.00
34243;BME280;20504;43.214;27.920;2023-04-01T22:13:32;99013.78;;;15.12;100.00
34243;BME280;20504;43.214;27.920;2023-04-01T22:21:29;99001.94;;;15.06;100.00
34243;BME280;20504;43.214;27.920;2023-04-01T22:24:08;98937.19;;;15.21;100.00
34243;BME280;20504;43.214;27.920;2023-04-01T22:26:45;98951.88;;;15.08;100.00
34243;BME280;20504;43.214;27.920;2023-04-01T22:29:24;98931.84;;;14.96;100.00
34243;BME280;20504;43.214;27.920;2023-04-01T22:31:55;98925.69;;;15.12;100.00
34243;BME280;20504;43.214;27.920;2023-04-01T22:37:54;98774.84;;;15.00;100.00
34243;BME280;20504;43.214;27.920;2023-04-01T22:43:03;98833.09;;;14.88;100.00
34243;BME280;20504;43.214;27.920;2023-04-01T22:56:14;98699.09;;;15.01;100.00
34243;BME280;20504;43.214;27.920;2023-04-01T22:58:53;98680.22;;;15.10;100.00
34243;BME280;20504;43.214;27.920;2023-04-01T23:01:25;98715.59;;;15.04;100.00
34243;BME280;20504;43.214;27.920;2023-04-01T23:03:52;98772.53;;;14.97;100.00
34243;BME280;20504;43.214;27.920;2023-04-01T23:06:26;98772.66;;;15.03;100.00
34243;BME280;20504;43.214;27.920;2023-04-01T23:09:04;98812.22;;;15.08;100.00
34243;BME280;20504;43.214;27.920;2023-04-01T23:25:18;99071.16;;;15.00;100.00
34243;BME280;20504;43.214;27.920;2023-04-01T23:33:24;99417.53;;;14.98;100.00
34243;BME280;20504;43.214;27.920;2023-04-01T23:36:13;99478.09;;;14.79;100.00
34243;BME280;20504;43.214;27.920;2023-04-01T23:38:41;99573.78;;;14.74;100.00
34243;BME280;20504;43.214;27.920;2023-04-01T23:41:28;99640.59;;;14.82;100.00
34243;BME280;20504;43.214;27.920;2023-04-01T23:44:10;99730.94;;;14.77;100.00